createdAt,value
2016-07-25T17:18:23.759Z,1265
2016-07-25T17:18:32.367Z,1245
2016-07-25T17:19:32.354Z,1025
2016-07-25T17:20:32.401Z,855
2016-07-25T17:21:32.375Z,755
2016-07-25T17:22:32.376Z,740
2016-07-25T17:23:32.331Z,650
2016-07-25T17:24:32.369Z,580
2016-07-25T17:25:32.333Z,530
2016-07-25T17:26:32.344Z,500
2016-07-25T17:27:32.349Z,490
2016-07-25T17:28:32.326Z,580
2016-07-25T17:29:32.336Z,645
2016-07-25T17:30:32.297Z,730
2016-07-25T17:31:32.307Z,630
2016-07-25T17:32:32.309Z,600
2016-07-25T17:33:32.292Z,485
2016-07-25T17:34:32.299Z,345
2016-07-25T17:35:32.313Z,310
2016-07-25T17:36:32.296Z,295
2016-07-25T17:37:32.299Z,280
2016-07-25T17:38:32.281Z,245
2016-07-25T17:39:32.272Z,230
2016-07-25T17:40:32.286Z,215
2016-07-25T17:41:32.259Z,205
2016-07-25T17:42:32.258Z,205
2016-07-25T17:43:32.269Z,235
2016-07-25T17:44:32.243Z,255
2016-07-25T17:45:32.247Z,205
2016-07-25T17:46:32.250Z,215
2016-07-25T17:47:32.248Z,185
2016-07-25T17:48:32.251Z,170
2016-07-25T17:49:32.227Z,165
2016-07-25T17:50:32.247Z,160
2016-07-25T17:51:32.201Z,160
2016-07-25T17:52:32.203Z,140
2016-07-25T17:53:32.901Z,140
2016-07-25T17:54:32.179Z,130
2016-07-25T17:55:32.195Z,130
2016-07-25T17:56:32.179Z,130
2016-07-25T17:57:32.187Z,110
2016-07-25T17:58:32.174Z,85
2016-07-25T17:59:32.195Z,70
2016-07-25T18:00:32.174Z,65
2016-07-25T18:01:32.184Z,60
2016-07-25T18:02:32.170Z,65
2016-07-25T18:03:32.120Z,75
2016-07-25T18:04:32.147Z,80
2016-07-25T18:05:32.116Z,80
2016-07-25T18:06:32.136Z,75
2016-07-25T18:07:32.110Z,70
2016-07-25T18:08:32.106Z,75
2016-07-25T18:09:32.110Z,75
2016-07-25T18:10:32.118Z,75
2016-07-25T18:11:32.101Z,75
2016-07-25T18:12:32.082Z,80
2016-07-25T18:13:32.090Z,90
2016-07-25T18:14:32.977Z,95
2016-07-25T18:15:32.080Z,95
2016-07-25T18:16:32.075Z,90
2016-07-25T18:17:32.098Z,90
2016-07-25T18:18:32.074Z,80
2016-07-25T18:19:32.068Z,75
2016-07-25T18:20:32.054Z,75
2016-07-25T18:21:32.056Z,75
2016-07-25T18:22:32.028Z,70
2016-07-25T18:23:32.033Z,65
2016-07-25T18:24:32.010Z,55
2016-07-25T18:25:32.032Z,55
2016-07-25T18:26:32.020Z,50
2016-07-25T18:27:31.996Z,50
2016-07-25T18:28:32.004Z,45
2016-07-25T18:29:32.020Z,40
2016-07-25T18:30:31.990Z,35
2016-07-25T18:31:32.002Z,25
2016-07-25T18:32:31.994Z,20
2016-07-25T18:33:31.986Z,20
2016-07-25T18:34:31.946Z,20
2016-07-25T18:35:31.975Z,20
2016-07-25T18:36:31.984Z,20
2016-07-25T18:37:31.955Z,20
2016-07-25T18:38:31.952Z,25
2016-07-25T18:39:31.953Z,25
2016-07-25T18:40:31.962Z,25
2016-07-25T18:41:31.954Z,20
2016-07-25T18:42:31.930Z,15
2016-07-25T18:43:31.950Z,20
2016-07-25T18:44:31.918Z,20
2016-07-25T18:45:31.934Z,20
2016-07-25T18:46:31.907Z,20
2016-07-25T18:47:31.916Z,15
2016-07-25T18:48:31.899Z,15
2016-07-25T18:49:31.896Z,15
2016-07-25T18:50:31.861Z,15
2016-07-25T18:51:31.871Z,15
2016-07-25T18:52:31.850Z,15
2016-07-25T18:53:31.852Z,15
2016-07-25T18:54:31.850Z,15
2016-07-25T18:55:31.829Z,15
2016-07-25T18:56:31.842Z,10
2016-07-25T18:57:31.850Z,10
2016-07-25T18:58:31.823Z,10
2016-07-25T18:59:31.838Z,10
2016-07-25T19:00:31.787Z,10
2016-07-25T19:01:32.511Z,5
2016-07-25T19:03:31.779Z,5
2016-07-25T19:04:31.803Z,5
2016-07-25T19:05:31.796Z,5
2016-07-25T19:06:31.767Z,5
2016-07-25T19:07:31.792Z,5
2016-07-25T19:08:31.785Z,0
2016-07-25T19:09:31.750Z,0
2016-07-25T19:10:31.762Z,0
2016-07-25T19:11:31.760Z,0
2016-07-25T19:12:31.709Z,0
2016-07-25T19:13:31.738Z,0
2016-07-25T19:14:31.702Z,0
2016-07-25T19:15:31.717Z,0
2016-07-25T19:16:31.734Z,0
2016-07-25T19:17:31.717Z,0
2016-07-25T19:18:31.714Z,0
2016-07-25T19:19:31.713Z,0
2016-07-25T19:20:31.684Z,0
2016-07-25T19:21:31.688Z,0
2016-07-25T19:22:31.687Z,0
2016-07-25T19:23:31.652Z,0
2016-07-25T19:24:31.675Z,0
2016-07-25T19:25:31.663Z,0
2016-07-25T19:26:31.629Z,0
2016-07-25T19:27:31.655Z,0
2016-07-25T19:28:31.638Z,0
2016-07-25T19:29:31.631Z,0
2016-07-25T19:30:31.622Z,0
2016-07-25T19:31:31.619Z,0
2016-07-25T19:33:31.615Z,0
2016-07-25T19:34:31.592Z,0
2016-07-25T19:35:31.572Z,0
2016-07-25T19:36:31.582Z,0
2016-07-25T19:37:31.588Z,0
2016-07-25T19:38:31.582Z,0
2016-07-25T19:39:31.581Z,0
2016-07-25T19:40:31.548Z,0
2016-07-25T19:41:31.574Z,0
2016-07-25T19:42:31.556Z,0
2016-07-25T19:43:31.525Z,0
2016-07-25T19:44:31.536Z,0
2016-07-25T19:45:31.550Z,0
2016-07-25T19:46:31.529Z,0
2016-07-25T19:48:31.531Z,0
2016-07-25T19:49:31.507Z,0
2016-07-25T19:50:31.506Z,0
2016-07-25T19:51:31.493Z,0
2016-07-25T19:52:31.513Z,0
2016-07-25T19:53:31.480Z,0
2016-07-25T19:54:31.478Z,0
2016-07-25T19:55:31.471Z,0
2016-07-25T19:56:31.462Z,0
2016-07-25T19:57:31.449Z,0
2016-07-25T19:58:31.457Z,0
2016-07-25T19:59:31.434Z,0
2016-07-25T20:00:31.469Z,0
2016-07-25T20:01:31.434Z,0
2016-07-25T20:03:31.442Z,0
2016-07-25T20:04:31.397Z,0
2016-07-25T20:05:31.407Z,0
2016-07-25T20:06:31.417Z,0
2016-07-25T20:07:31.424Z,0
2016-07-25T20:08:31.397Z,0
2016-07-25T20:09:31.382Z,0
2016-07-25T20:10:31.382Z,0
2016-07-25T20:11:31.368Z,0
2016-07-25T20:12:31.379Z,0
2016-07-25T20:13:31.397Z,0
2016-07-25T20:14:31.379Z,0
2016-07-25T20:15:31.330Z,0
2016-07-25T20:16:31.333Z,0
2016-07-25T20:17:31.354Z,0
2016-07-25T20:18:31.313Z,0
2016-07-25T20:19:31.352Z,0
2016-07-25T20:20:31.333Z,0
2016-07-25T20:21:31.315Z,0
2016-07-25T20:22:31.294Z,0
2016-07-25T20:23:31.311Z,0
2016-07-25T20:24:31.330Z,0
2016-07-25T20:25:31.296Z,0
2016-07-25T20:26:31.300Z,0
2016-07-25T20:27:32.022Z,0
2016-07-25T20:28:31.283Z,0
2016-07-25T20:29:31.304Z,0
2016-07-25T20:30:31.272Z,0
2016-07-25T20:31:31.300Z,0
2016-07-25T20:32:31.282Z,0
2016-07-25T20:33:31.284Z,0
2016-07-25T20:34:31.234Z,0
2016-07-25T20:35:31.258Z,0
2016-07-25T20:36:31.249Z,0
2016-07-25T20:37:31.234Z,0
2016-07-25T20:38:31.247Z,0
2016-07-25T20:39:31.230Z,0
2016-07-25T20:40:31.212Z,0
2016-07-25T20:41:31.229Z,0
2016-07-25T20:42:31.206Z,0
2016-07-25T20:43:31.205Z,0
2016-07-25T20:44:31.181Z,0
2016-07-25T20:45:31.203Z,0
2016-07-25T20:46:31.197Z,0
2016-07-25T20:47:31.173Z,0
2016-07-25T20:48:31.206Z,0
2016-07-25T20:49:31.170Z,0
2016-07-25T20:50:31.172Z,0
2016-07-25T20:51:31.164Z,0
2016-07-25T20:52:31.176Z,0
2016-07-25T20:53:31.140Z,0
2016-07-25T20:54:31.126Z,0
2016-07-25T20:55:31.130Z,0
2016-07-25T20:56:31.115Z,0
2016-07-25T20:57:31.129Z,0
2016-07-25T20:58:31.146Z,0
2016-07-25T20:59:31.087Z,0
2016-07-25T21:00:31.122Z,0
2016-07-25T21:01:31.062Z,0
2016-07-25T21:02:31.078Z,0
2016-07-25T21:03:31.082Z,0
2016-07-25T21:04:31.087Z,0
2016-07-25T21:05:31.755Z,0
2016-07-25T21:06:31.072Z,0
2016-07-25T21:07:31.058Z,0
2016-07-25T21:08:31.051Z,0
2016-07-25T21:09:31.021Z,0
2016-07-25T21:10:31.025Z,0
2016-07-25T21:11:31.035Z,0
2016-07-25T21:12:31.011Z,0
2016-07-25T21:13:31.038Z,0
2016-07-25T21:14:31.023Z,0
2016-07-25T21:15:31.046Z,0
2016-07-25T21:16:31.004Z,0
2016-07-25T21:17:31.000Z,0
2016-07-25T21:18:31.003Z,0
2016-07-25T21:19:30.994Z,0
2016-07-25T21:20:30.971Z,0
2016-07-25T21:21:31.003Z,0
2016-07-25T21:22:31.001Z,0
2016-07-25T21:23:30.952Z,0
2016-07-25T21:24:30.988Z,0
2016-07-25T21:25:30.943Z,0
2016-07-25T21:26:30.958Z,0
2016-07-25T21:27:30.942Z,0
2016-07-25T21:28:30.941Z,0
2016-07-25T21:29:30.935Z,0
2016-07-25T21:30:30.918Z,0
2016-07-25T21:31:30.930Z,0
2016-07-25T21:32:30.901Z,0
2016-07-25T21:33:31.606Z,0
2016-07-25T21:34:30.889Z,0
2016-07-25T21:35:30.903Z,0
2016-07-25T21:36:30.906Z,0
2016-07-25T21:37:30.869Z,0
2016-07-25T21:38:30.882Z,0
2016-07-25T21:39:30.880Z,0
2016-07-25T21:40:30.846Z,0
2016-07-25T21:41:30.886Z,0
2016-07-25T21:42:30.887Z,0
2016-07-25T21:43:30.846Z,0
2016-07-25T21:44:30.878Z,0
2016-07-25T21:45:30.851Z,0
2016-07-25T21:46:30.849Z,0
2016-07-25T21:47:30.848Z,0
2016-07-25T21:48:31.528Z,0
2016-07-25T21:49:31.520Z,0
2016-07-25T21:50:30.803Z,0
2016-07-25T21:51:31.524Z,0
2016-07-25T21:52:30.823Z,0
2016-07-25T21:53:30.782Z,0
2016-07-25T21:54:30.820Z,0
2016-07-25T21:55:30.784Z,0
2016-07-25T21:56:30.786Z,0
2016-07-25T21:57:30.766Z,0
2016-07-25T21:58:30.766Z,0
2016-07-25T21:59:30.745Z,0
2016-07-25T22:00:30.736Z,0
2016-07-25T22:01:30.741Z,0
2016-07-25T22:02:30.757Z,0
2016-07-25T22:03:30.740Z,0
2016-07-25T22:04:30.730Z,0
2016-07-25T22:05:30.759Z,0
2016-07-25T22:06:30.742Z,0
2016-07-25T22:07:30.741Z,0
2016-07-25T22:08:30.721Z,0
2016-07-25T22:09:30.704Z,0
2016-07-25T22:10:30.689Z,0
2016-07-25T22:11:30.713Z,0
2016-07-25T22:12:30.698Z,0
2016-07-25T22:13:30.693Z,0
2016-07-25T22:14:30.685Z,0
2016-07-25T22:15:30.681Z,0
2016-07-25T22:16:30.659Z,0
2016-07-25T22:17:30.655Z,0
2016-07-25T22:18:30.645Z,0
2016-07-25T22:19:30.656Z,0
2016-07-25T22:20:30.644Z,0
2016-07-25T22:21:30.644Z,0
2016-07-25T22:22:30.633Z,0
2016-07-25T22:23:30.612Z,0
2016-07-25T22:24:30.620Z,0
2016-07-25T22:25:30.618Z,0
2016-07-25T22:26:30.598Z,0
2016-07-25T22:27:30.604Z,0
2016-07-25T22:28:30.552Z,0
2016-07-25T22:29:30.571Z,0
2016-07-25T22:30:30.586Z,0
2016-07-25T22:31:30.553Z,0
2016-07-25T22:32:30.571Z,0
2016-07-25T22:33:30.597Z,0
2016-07-25T22:34:30.543Z,0
2016-07-25T22:35:30.537Z,0
2016-07-25T22:36:30.515Z,0
2016-07-25T22:37:30.537Z,0
2016-07-25T22:38:30.506Z,0
2016-07-25T22:39:30.515Z,0
2016-07-25T22:40:30.519Z,0
2016-07-25T22:41:30.497Z,0
2016-07-25T22:42:30.498Z,0
2016-07-25T22:43:30.486Z,0
2016-07-25T22:44:30.493Z,0
2016-07-25T22:45:30.486Z,0
2016-07-25T22:46:30.470Z,0
2016-07-25T22:47:30.472Z,0
2016-07-25T22:48:30.471Z,0
2016-07-25T22:49:30.431Z,0
2016-07-25T22:50:30.449Z,0
2016-07-25T22:51:30.439Z,0
2016-07-25T22:52:30.424Z,0
2016-07-25T22:53:30.418Z,0
2016-07-25T22:54:30.414Z,0
2016-07-25T22:55:30.412Z,0
2016-07-25T22:56:30.388Z,0
2016-07-25T22:57:30.406Z,0
2016-07-25T22:58:30.400Z,0
2016-07-25T22:59:30.375Z,0
2016-07-25T23:00:30.397Z,0
2016-07-25T23:01:30.367Z,0
2016-07-25T23:02:31.091Z,0
2016-07-25T23:03:30.367Z,0
2016-07-25T23:04:30.377Z,0
2016-07-25T23:05:30.359Z,0
2016-07-25T23:06:30.362Z,0
2016-07-25T23:07:30.327Z,0
2016-07-25T23:08:30.340Z,0
2016-07-25T23:09:30.323Z,0
2016-07-25T23:10:30.324Z,0
2016-07-25T23:11:30.298Z,0
2016-07-25T23:12:30.315Z,0
2016-07-25T23:13:30.298Z,0
2016-07-25T23:14:30.295Z,0
2016-07-25T23:15:30.291Z,0
2016-07-25T23:16:30.278Z,0
2016-07-25T23:17:30.983Z,0
2016-07-25T23:18:30.310Z,0
2016-07-25T23:19:30.256Z,0
2016-07-25T23:20:30.282Z,0
2016-07-25T23:21:30.279Z,0
2016-07-25T23:22:30.244Z,0
2016-07-25T23:23:30.243Z,0
2016-07-25T23:24:30.239Z,0
2016-07-25T23:25:30.219Z,0
2016-07-25T23:26:30.215Z,0
2016-07-25T23:27:30.217Z,0
2016-07-25T23:28:30.210Z,0
2016-07-25T23:29:30.198Z,0
2016-07-25T23:30:30.210Z,0
2016-07-25T23:31:30.166Z,0
2016-07-25T23:32:30.197Z,0
2016-07-25T23:34:30.184Z,0
2016-07-25T23:35:30.134Z,0
2016-07-25T23:36:30.134Z,0
2016-07-25T23:37:30.135Z,0
2016-07-25T23:38:30.170Z,0
2016-07-25T23:39:30.114Z,0
2016-07-25T23:40:30.136Z,0
2016-07-25T23:41:30.099Z,0
2016-07-25T23:42:30.127Z,0
2016-07-25T23:43:30.117Z,0
2016-07-25T23:44:30.097Z,0
2016-07-25T23:45:30.113Z,0
2016-07-25T23:46:30.090Z,0
2016-07-25T23:47:30.105Z,0
2016-07-25T23:49:30.082Z,0
2016-07-25T23:50:30.075Z,0
2016-07-25T23:51:30.066Z,0
2016-07-25T23:52:30.044Z,0
2016-07-25T23:53:30.071Z,0
2016-07-25T23:54:30.055Z,0
2016-07-25T23:55:30.034Z,0
2016-07-25T23:56:30.032Z,0
2016-07-25T23:57:30.015Z,0
2016-07-25T23:58:30.027Z,0
2016-07-25T23:59:30.019Z,0
